CheckWX is a tool to help pilots better visualize weather data.  It is not intended as a substitute for an official pre-flight weather briefing.

02:16:48 UTC

KSAC METAR
Sacramento Executive Airport
Sacramento, California, USA
Current

24 mins ago

KSAC 250153Z 34005KT 9SM CLR 13/11 A3013 RMK AO2 SLP202 T01280111
Observed
Jan-25 @ 01:53 UTC
Wind
  • 340° at 5 KTS
Visibility
9 SM
Flight Rules
VFR
Cloud Levels
  • Clear skies
Temperature
13°C / 55°F
Dewpoint
11°C / 52°F
Humidity
88%
Altimeter
30.13" Hg
Pressure
1020.32 hPa
Previous

1 hour ago

KSAC 250053Z 30007KT 10SM CLR 14/11 A3013 RMK AO2 SLP203 T01390111
Observed
Jan-25 @ 00:53 UTC
Wind
  • 300° at 7 KTS
Visibility
10 SM
Flight Rules
VFR
Cloud Levels
  • Clear skies
Temperature
14°C / 57°F
Dewpoint
11°C / 52°F
Humidity
82%
Altimeter
30.13" Hg
Pressure
1020.32 hPa
Previous

2 hours ago

KSAC 242353Z 29006KT 10SM CLR 16/11 A3012 RMK AO2 SLP200 T01610111 10178 20111 56008
Observed
Jan-24 @ 23:53 UTC
Wind
  • 290° at 6 KTS
Visibility
10 SM
Flight Rules
VFR
Cloud Levels
  • Clear skies
Temperature
16°C / 61°F
Dewpoint
11°C / 52°F
Humidity
72%
Altimeter
30.12" Hg
Pressure
1020.02 hPa